sensor_id;sensor_type;location;lat;lon;timestamp;temperature;humidity
19538;DHT22;9914;51.008;4.300;2023-02-15T00:01:55;4.40;99.90
19538;DHT22;9914;51.008;4.300;2023-02-15T00:04:24;4.50;99.90
19538;DHT22;9914;51.008;4.300;2023-02-15T00:06:49;4.50;99.90
19538;DHT22;9914;51.008;4.300;2023-02-15T00:09:15;4.60;99.90
19538;DHT22;9914;51.008;4.300;2023-02-15T00:11:41;4.60;99.90
19538;DHT22;9914;51.008;4.300;2023-02-15T00:14:20;4.40;99.90
19538;DHT22;9914;51.008;4.300;2023-02-15T00:16:47;4.50;99.90
19538;DHT22;9914;51.008;4.300;2023-02-15T00:19:15;4.50;99.90
19538;DHT22;9914;51.008;4.300;2023-02-15T00:21:41;4.40;99.90
19538;DHT22;9914;51.008;4.300;2023-02-15T00:24:09;4.30;99.90
19538;DHT22;9914;51.008;4.300;2023-02-15T00:26:38;4.20;99.90
19538;DHT22;9914;51.008;4.300;2023-02-15T00:29:04;4.10;99.90
19538;DHT22;9914;51.008;4.300;2023-02-15T00:31:31;4.10;99.90
19538;DHT22;9914;51.008;4.300;2023-02-15T00:34:11;4.20;99.90
19538;DHT22;9914;51.008;4.300;2023-02-15T00:36:37;4.30;99.90
19538;DHT22;9914;51.008;4.300;2023-02-15T00:39:02;4.10;99.90
19538;DHT22;9914;51.008;4.300;2023-02-15T00:41:30;4.10;99.90
19538;DHT22;9914;51.008;4.300;2023-02-15T00:43:56;4.10;99.90
19538;DHT22;9914;51.008;4.300;2023-02-15T00:46:21;4.10;99.90
19538;DHT22;9914;51.008;4.300;2023-02-15T00:48:47;4.10;99.90
19538;DHT22;9914;51.008;4.300;2023-02-15T00:51:13;4.10;99.90
19538;DHT22;9914;51.008;4.300;2023-02-15T00:53:39;4.00;99.90
19538;DHT22;9914;51.008;4.300;2023-02-15T00:56:04;4.00;99.90
19538;DHT22;9914;51.008;4.300;2023-02-15T00:58:30;3.90;99.90
19538;DHT22;9914;51.008;4.300;2023-02-15T01:01:06;4.00;99.90
19538;DHT22;9914;51.008;4.300;2023-02-15T01:03:32;4.20;99.90
19538;DHT22;9914;51.008;4.300;2023-02-15T01:05:58;4.30;99.90
19538;DHT22;9914;51.008;4.300;2023-02-15T01:08:24;4.30;99.90
19538;DHT22;9914;51.008;4.300;2023-02-15T01:10:49;4.20;99.90
19538;DHT22;9914;51.008;4.300;2023-02-15T01:13:15;4.10;99.90
19538;DHT22;9914;51.008;4.300;2023-02-15T01:15:42;4.00;99.90
19538;DHT22;9914;51.008;4.300;2023-02-15T01:18:08;3.90;99.90
19538;DHT22;9914;51.008;4.300;2023-02-15T01:20:35;3.80;99.90
19538;DHT22;9914;51.008;4.300;2023-02-15T01:23:04;3.80;99.90
19538;DHT22;9914;51.008;4.300;2023-02-15T01:25:30;3.80;99.90
19538;DHT22;9914;51.008;4.300;2023-02-15T01:27:56;3.80;99.90
19538;DHT22;9914;51.008;4.300;2023-02-15T01:30:21;3.80;99.90
19538;DHT22;9914;51.008;4.300;2023-02-15T01:32:47;3.80;99.90
19538;DHT22;9914;51.008;4.300;2023-02-15T01:35:13;3.80;99.90
19538;DHT22;9914;51.008;4.300;2023-02-15T01:37:38;3.80;99.90
19538;DHT22;9914;51.008;4.300;2023-02-15T01:40:06;3.70;99.90
19538;DHT22;9914;51.008;4.300;2023-02-15T01:42:32;3.70;99.90
19538;DHT22;9914;51.008;4.300;2023-02-15T01:45:01;3.60;99.90
19538;DHT22;9914;51.008;4.300;2023-02-15T01:47:36;3.60;99.90
19538;DHT22;9914;51.008;4.300;2023-02-15T01:52:35;3.50;99.90
19538;DHT22;9914;51.008;4.300;2023-02-15T01:55:01;3.60;99.90
19538;DHT22;9914;51.008;4.300;2023-02-15T01:57:28;3.50;99.90
19538;DHT22;9914;51.008;4.300;2023-02-15T01:59:57;3.50;99.90
19538;DHT22;9914;51.008;4.300;2023-02-15T02:02:25;3.50;99.90
19538;DHT22;9914;51.008;4.300;2023-02-15T02:04:58;3.50;99.90
19538;DHT22;9914;51.008;4.300;2023-02-15T02:07:27;3.40;99.90
19538;DHT22;9914;51.008;4.300;2023-02-15T02:09:54;3.50;99.90
19538;DHT22;9914;51.008;4.300;2023-02-15T02:12:21;3.60;99.90
19538;DHT22;9914;51.008;4.300;2023-02-15T02:14:48;3.50;99.90
19538;DHT22;9914;51.008;4.300;2023-02-15T02:17:24;3.60;99.90
19538;DHT22;9914;51.008;4.300;2023-02-15T02:42:12;3.10;99.90
19538;DHT22;9914;51.008;4.300;2023-02-15T02:45:08;3.10;99.90
19538;DHT22;9914;51.008;4.300;2023-02-15T02:50:09;3.20;99.90
19538;DHT22;9914;51.008;4.300;2023-02-15T02:52:36;3.10;99.90
19538;DHT22;9914;51.008;4.300;2023-02-15T02:55:07;3.10;99.90
19538;DHT22;9914;51.008;4.300;2023-02-15T02:57:34;3.00;99.90
19538;DHT22;9914;51.008;4.300;2023-02-15T03:00:04;3.10;99.90
19538;DHT22;9914;51.008;4.300;2023-02-15T03:02:36;3.10;99.90
19538;DHT22;9914;51.008;4.300;2023-02-15T03:05:06;3.00;99.90
19538;DHT22;9914;51.008;4.300;2023-02-15T03:07:34;2.90;99.90
19538;DHT22;9914;51.008;4.300;2023-02-15T03:10:03;2.90;99.90
19538;DHT22;9914;51.008;4.300;2023-02-15T03:12:35;2.80;99.90
19538;DHT22;9914;51.008;4.300;2023-02-15T03:15:19;2.90;99.90
19538;DHT22;9914;51.008;4.300;2023-02-15T03:17:55;3.00;99.90
19538;DHT22;9914;51.008;4.300;2023-02-15T03:20:28;3.00;99.90
19538;DHT22;9914;51.008;4.300;2023-02-15T03:22:58;2.90;99.90
19538;DHT22;9914;51.008;4.300;2023-02-15T03:25:34;2.90;99.90
19538;DHT22;9914;51.008;4.300;2023-02-15T03:28:08;2.90;99.90
19538;DHT22;9914;51.008;4.300;2023-02-15T03:30:38;2.90;99.90
19538;DHT22;9914;51.008;4.300;2023-02-15T03:33:06;3.00;99.90
19538;DHT22;9914;51.008;4.300;2023-02-15T03:35:47;3.10;99.90
19538;DHT22;9914;51.008;4.300;2023-02-15T03:38:18;3.00;99.90
19538;DHT22;9914;51.008;4.300;2023-02-15T03:40:47;2.90;99.90
19538;DHT22;9914;51.008;4.300;2023-02-15T03:43:52;2.90;99.90
19538;DHT22;9914;51.008;4.300;2023-02-15T03:46:28;2.80;99.90
19538;DHT22;9914;51.008;4.300;2023-02-15T03:49:05;2.70;99.90
19538;DHT22;9914;51.008;4.300;2023-02-15T03:51:36;2.70;99.90
19538;DHT22;9914;51.008;4.300;2023-02-15T03:54:19;2.70;99.90
19538;DHT22;9914;51.008;4.300;2023-02-15T03:57:06;2.80;99.90
19538;DHT22;9914;51.008;4.300;2023-02-15T03:59:51;2.70;99.90
19538;DHT22;9914;51.008;4.300;2023-02-15T04:02:41;2.70;99.90
19538;DHT22;9914;51.008;4.300;2023-02-15T04:05:08;2.70;99.90
19538;DHT22;9914;51.008;4.300;2023-02-15T04:07:34;2.70;99.90
19538;DHT22;9914;51.008;4.300;2023-02-15T04:09:59;2.70;99.90
19538;DHT22;9914;51.008;4.300;2023-02-15T04:12:43;2.70;99.90
19538;DHT22;9914;51.008;4.300;2023-02-15T04:15:12;2.60;99.90
19538;DHT22;9914;51.008;4.300;2023-02-15T04:17:56;2.60;99.90
19538;DHT22;9914;51.008;4.300;2023-02-15T04:20:22;2.60;99.90
19538;DHT22;9914;51.008;4.300;2023-02-15T04:23:07;2.70;99.90
19538;DHT22;9914;51.008;4.300;2023-02-15T04:25:51;2.60;99.90
19538;DHT22;9914;51.008;4.300;2023-02-15T04:28:17;2.60;99.90
19538;DHT22;9914;51.008;4.300;2023-02-15T04:30:42;2.50;99.90
19538;DHT22;9914;51.008;4.300;2023-02-15T04:33:08;2.50;99.90
19538;DHT22;9914;51.008;4.300;2023-02-15T04:35:33;2.50;99.90
19538;DHT22;9914;51.008;4.300;2023-02-15T04:37:59;2.50;99.90
19538;DHT22;9914;51.008;4.300;2023-02-15T04:40:25;2.50;99.90
19538;DHT22;9914;51.008;4.300;2023-02-15T04:42:51;2.60;99.90
19538;DHT22;9914;51.008;4.300;2023-02-15T04:45:17;2.50;99.90
19538;DHT22;9914;51.008;4.300;2023-02-15T04:47:43;2.50;99.90
19538;DHT22;9914;51.008;4.300;2023-02-15T04:50:09;2.50;99.90
19538;DHT22;9914;51.008;4.300;2023-02-15T04:52:34;2.30;99.90
19538;DHT22;9914;51.008;4.300;2023-02-15T04:55:00;2.30;99.90
19538;DHT22;9914;51.008;4.300;2023-02-15T04:57:25;2.30;99.90
19538;DHT22;9914;51.008;4.300;2023-02-15T04:59:51;2.30;99.90
19538;DHT22;9914;51.008;4.300;2023-02-15T05:02:17;2.20;99.90
19538;DHT22;9914;51.008;4.300;2023-02-15T05:04:42;2.30;99.90
19538;DHT22;9914;51.008;4.300;2023-02-15T05:07:08;2.30;99.90
19538;DHT22;9914;51.008;4.300;2023-02-15T05:09:33;2.20;99.90
19538;DHT22;9914;51.008;4.300;2023-02-15T05:11:59;2.20;99.90
19538;DHT22;9914;51.008;4.300;2023-02-15T05:14:24;2.20;99.90
19538;DHT22;9914;51.008;4.300;2023-02-15T05:16:50;2.20;99.90
19538;DHT22;9914;51.008;4.300;2023-02-15T05:19:16;2.30;99.90
19538;DHT22;9914;51.008;4.300;2023-02-15T05:21:41;2.30;99.90
19538;DHT22;9914;51.008;4.300;2023-02-15T05:24:07;2.30;99.90
19538;DHT22;9914;51.008;4.300;2023-02-15T05:26:51;2.30;99.90
19538;DHT22;9914;51.008;4.300;2023-02-15T05:29:35;2.30;99.90
19538;DHT22;9914;51.008;4.300;2023-02-15T05:32:00;2.20;99.90
19538;DHT22;9914;51.008;4.300;2023-02-15T05:34:27;2.20;99.90
19538;DHT22;9914;51.008;4.300;2023-02-15T05:36:53;2.10;99.90
19538;DHT22;9914;51.008;4.300;2023-02-15T05:39:18;2.10;99.90
19538;DHT22;9914;51.008;4.300;2023-02-15T05:41:44;2.20;99.90
19538;DHT22;9914;51.008;4.300;2023-02-15T05:44:09;2.20;99.90
19538;DHT22;9914;51.008;4.300;2023-02-15T05:46:35;2.10;99.90
19538;DHT22;9914;51.008;4.300;2023-02-15T05:49:00;2.10;99.90
19538;DHT22;9914;51.008;4.300;2023-02-15T05:51:26;2.20;99.90
19538;DHT22;9914;51.008;4.300;2023-02-15T05:53:52;2.30;99.90
19538;DHT22;9914;51.008;4.300;2023-02-15T05:56:17;2.40;99.90
19538;DHT22;9914;51.008;4.300;2023-02-15T05:58:43;2.20;99.90
19538;DHT22;9914;51.008;4.300;2023-02-15T06:01:10;2.20;99.90
19538;DHT22;9914;51.008;4.300;2023-02-15T06:03:36;2.20;99.90
19538;DHT22;9914;51.008;4.300;2023-02-15T06:06:02;2.20;99.90
19538;DHT22;9914;51.008;4.300;2023-02-15T06:08:30;2.20;99.90
19538;DHT22;9914;51.008;4.300;2023-02-15T06:10:55;2.20;99.90
19538;DHT22;9914;51.008;4.300;2023-02-15T06:13:21;2.20;99.90
19538;DHT22;9914;51.008;4.300;2023-02-15T06:15:47;2.20;99.90
19538;DHT22;9914;51.008;4.300;2023-02-15T06:18:12;2.20;99.90
19538;DHT22;9914;51.008;4.300;2023-02-15T06:20:38;2.20;99.90
19538;DHT22;9914;51.008;4.300;2023-02-15T06:23:03;2.10;99.90
19538;DHT22;9914;51.008;4.300;2023-02-15T06:25:29;2.20;99.90
19538;DHT22;9914;51.008;4.300;2023-02-15T06:27:55;2.10;99.90
19538;DHT22;9914;51.008;4.300;2023-02-15T06:30:21;2.10;99.90
19538;DHT22;9914;51.008;4.300;2023-02-15T06:32:46;2.20;99.90
19538;DHT22;9914;51.008;4.300;2023-02-15T06:35:12;2.10;99.90
19538;DHT22;9914;51.008;4.300;2023-02-15T06:37:38;2.10;99.90
19538;DHT22;9914;51.008;4.300;2023-02-15T06:40:04;2.20;99.90
19538;DHT22;9914;51.008;4.300;2023-02-15T06:42:30;2.20;99.90
19538;DHT22;9914;51.008;4.300;2023-02-15T06:44:56;2.30;99.90
19538;DHT22;9914;51.008;4.300;2023-02-15T06:47:21;2.30;99.90
19538;DHT22;9914;51.008;4.300;2023-02-15T06:49:47;2.30;99.90
19538;DHT22;9914;51.008;4.300;2023-02-15T06:52:12;2.40;99.90
19538;DHT22;9914;51.008;4.300;2023-02-15T06:54:38;2.50;99.90
19538;DHT22;9914;51.008;4.300;2023-02-15T06:57:04;2.40;99.90
19538;DHT22;9914;51.008;4.300;2023-02-15T06:59:29;2.50;99.90
19538;DHT22;9914;51.008;4.300;2023-02-15T07:01:55;2.50;99.90
19538;DHT22;9914;51.008;4.300;2023-02-15T07:04:20;2.50;99.90
19538;DHT22;9914;51.008;4.300;2023-02-15T07:06:46;2.60;99.90
19538;DHT22;9914;51.008;4.300;2023-02-15T07:09:11;2.70;99.90
19538;DHT22;9914;51.008;4.300;2023-02-15T07:11:38;2.70;99.90
19538;DHT22;9914;51.008;4.300;2023-02-15T07:14:22;2.80;99.90
19538;DHT22;9914;51.008;4.300;2023-02-15T07:16:48;2.80;99.90
19538;DHT22;9914;51.008;4.300;2023-02-15T07:19:13;2.90;99.90
19538;DHT22;9914;51.008;4.300;2023-02-15T07:21:39;2.80;99.90
19538;DHT22;9914;51.008;4.300;2023-02-15T07:24:04;3.00;99.90
19538;DHT22;9914;51.008;4.300;2023-02-15T07:26:33;3.00;99.90
19538;DHT22;9914;51.008;4.300;2023-02-15T07:28:59;3.10;99.90
19538;DHT22;9914;51.008;4.300;2023-02-15T07:31:25;3.20;99.90
19538;DHT22;9914;51.008;4.300;2023-02-15T07:33:50;3.00;99.90
19538;DHT22;9914;51.008;4.300;2023-02-15T07:36:16;3.10;99.90
19538;DHT22;9914;51.008;4.300;2023-02-15T07:38:42;3.00;99.90
19538;DHT22;9914;51.008;4.300;2023-02-15T07:41:13;3.00;99.90
19538;DHT22;9914;51.008;4.300;2023-02-15T07:43:41;3.00;99.90
19538;DHT22;9914;51.008;4.300;2023-02-15T07:46:09;3.00;99.90
19538;DHT22;9914;51.008;4.300;2023-02-15T07:48:37;3.00;99.90
19538;DHT22;9914;51.008;4.300;2023-02-15T07:51:08;3.10;99.90
19538;DHT22;9914;51.008;4.300;2023-02-15T07:53:34;3.10;99.90
19538;DHT22;9914;51.008;4.300;2023-02-15T07:56:06;3.10;99.90
19538;DHT22;9914;51.008;4.300;2023-02-15T07:58:35;3.10;99.90
19538;DHT22;9914;51.008;4.300;2023-02-15T08:01:17;3.20;99.90
19538;DHT22;9914;51.008;4.300;2023-02-15T08:03:43;3.30;99.90
19538;DHT22;9914;51.008;4.300;2023-02-15T08:06:09;3.40;99.90
19538;DHT22;9914;51.008;4.300;2023-02-15T08:08:36;3.40;99.90
19538;DHT22;9914;51.008;4.300;2023-02-15T08:11:23;3.40;99.90
19538;DHT22;9914;51.008;4.300;2023-02-15T08:16:49;3.60;99.90
19538;DHT22;9914;51.008;4.300;2023-02-15T08:21:52;3.70;99.90
19538;DHT22;9914;51.008;4.300;2023-02-15T08:24:21;3.80;99.90
19538;DHT22;9914;51.008;4.300;2023-02-15T08:26:47;3.90;99.90
19538;DHT22;9914;51.008;4.300;2023-02-15T08:29:15;4.10;99.90
19538;DHT22;9914;51.008;4.300;2023-02-15T08:31:41;4.20;99.90
19538;DHT22;9914;51.008;4.300;2023-02-15T08:34:08;4.50;99.90
19538;DHT22;9914;51.008;4.300;2023-02-15T08:36:34;4.60;99.90
19538;DHT22;9914;51.008;4.300;2023-02-15T08:39:02;4.80;99.90
19538;DHT22;9914;51.008;4.300;2023-02-15T08:41:34;4.80;99.90
19538;DHT22;9914;51.008;4.300;2023-02-15T08:44:01;4.80;99.90
19538;DHT22;9914;51.008;4.300;2023-02-15T08:46:29;4.90;99.90
19538;DHT22;9914;51.008;4.300;2023-02-15T08:48:56;4.90;99.90
19538;DHT22;9914;51.008;4.300;2023-02-15T08:51:24;4.90;99.90
19538;DHT22;9914;51.008;4.300;2023-02-15T08:53:55;5.00;99.90
19538;DHT22;9914;51.008;4.300;2023-02-15T08:56:26;5.20;99.90
19538;DHT22;9914;51.008;4.300;2023-02-15T08:58:53;5.20;99.90
19538;DHT22;9914;51.008;4.300;2023-02-15T09:01:23;5.30;99.90
19538;DHT22;9914;51.008;4.300;2023-02-15T09:03:51;5.40;99.90
19538;DHT22;9914;51.008;4.300;2023-02-15T09:06:20;5.60;99.90
19538;DHT22;9914;51.008;4.300;2023-02-15T09:08:46;5.80;99.90
19538;DHT22;9914;51.008;4.300;2023-02-15T09:11:19;6.00;99.90
19538;DHT22;9914;51.008;4.300;2023-02-15T09:16:19;6.60;99.90
19538;DHT22;9914;51.008;4.300;2023-02-15T09:18:45;6.80;99.90
19538;DHT22;9914;51.008;4.300;2023-02-15T09:21:13;7.10;99.90
19538;DHT22;9914;51.008;4.300;2023-02-15T09:23:41;7.30;99.90
19538;DHT22;9914;51.008;4.300;2023-02-15T09:26:09;7.60;99.90
19538;DHT22;9914;51.008;4.300;2023-02-15T09:28:35;7.80;99.90
19538;DHT22;9914;51.008;4.300;2023-02-15T09:31:06;8.00;99.90
19538;DHT22;9914;51.008;4.300;2023-02-15T09:33:33;8.00;99.90
19538;DHT22;9914;51.008;4.300;2023-02-15T09:36:00;8.20;99.90
19538;DHT22;9914;51.008;4.300;2023-02-15T09:38:25;8.30;99.90
19538;DHT22;9914;51.008;4.300;2023-02-15T09:41:07;8.50;99.90
19538;DHT22;9914;51.008;4.300;2023-02-15T09:44:04;8.70;99.90
19538;DHT22;9914;51.008;4.300;2023-02-15T09:58:44;9.20;99.90
19538;DHT22;9914;51.008;4.300;2023-02-15T10:04:15;9.40;99.90
19538;DHT22;9914;51.008;4.300;2023-02-15T10:07:28;9.50;99.90
19538;DHT22;9914;51.008;4.300;2023-02-15T10:21:23;9.80;99.90
19538;DHT22;9914;51.008;4.300;2023-02-15T10:24:36;9.90;99.90
19538;DHT22;9914;51.008;4.300;2023-02-15T10:26:46;10.10;99.90
19538;DHT22;9914;51.008;4.300;2023-02-15T10:29:37;10.10;99.90
19538;DHT22;9914;51.008;4.300;2023-02-15T10:34:38;10.20;99.90
19538;DHT22;9914;51.008;4.300;2023-02-15T10:56:20;11.00;99.90
19538;DHT22;9914;51.008;4.300;2023-02-15T10:58:57;11.20;99.90
19538;DHT22;9914;51.008;4.300;2023-02-15T11:06:37;11.60;99.90
19538;DHT22;9914;51.008;4.300;2023-02-15T11:09:09;11.60;99.90
19538;DHT22;9914;51.008;4.300;2023-02-15T11:11:37;11.50;99.90
19538;DHT22;9914;51.008;4.300;2023-02-15T11:14:27;11.60;99.90
19538;DHT22;9914;51.008;4.300;2023-02-15T11:17:04;11.60;99.90
19538;DHT22;9914;51.008;4.300;2023-02-15T11:19:37;11.70;99.90
19538;DHT22;9914;51.008;4.300;2023-02-15T11:22:06;11.70;99.90
19538;DHT22;9914;51.008;4.300;2023-02-15T11:24:38;11.70;99.90
19538;DHT22;9914;51.008;4.300;2023-02-15T11:29:56;11.40;99.90
19538;DHT22;9914;51.008;4.300;2023-02-15T11:32:27;11.50;99.90
19538;DHT22;9914;51.008;4.300;2023-02-15T11:35:42;11.60;99.90
19538;DHT22;9914;51.008;4.300;2023-02-15T11:40:33;11.40;99.90
19538;DHT22;9914;51.008;4.300;2023-02-15T11:45:57;11.20;99.90
19538;DHT22;9914;51.008;4.300;2023-02-15T11:48:22;11.20;99.90
19538;DHT22;9914;51.008;4.300;2023-02-15T11:50:48;11.30;99.90
19538;DHT22;9914;51.008;4.300;2023-02-15T11:53:16;11.50;99.90
19538;DHT22;9914;51.008;4.300;2023-02-15T11:55:45;11.70;99.90
19538;DHT22;9914;51.008;4.300;2023-02-15T12:00:52;11.90;99.90
19538;DHT22;9914;51.008;4.300;2023-02-15T12:03:37;12.00;99.90
19538;DHT22;9914;51.008;4.300;2023-02-15T12:06:11;12.20;99.90
19538;DHT22;9914;51.008;4.300;2023-02-15T12:08:41;12.40;99.90
19538;DHT22;9914;51.008;4.300;2023-02-15T12:11:36;12.40;99.90
19538;DHT22;9914;51.008;4.300;2023-02-15T12:14:09;12.40;99.90
19538;DHT22;9914;51.008;4.300;2023-02-15T12:16:50;12.30;99.90
19538;DHT22;9914;51.008;4.300;2023-02-15T12:19:32;12.30;99.90
19538;DHT22;9914;51.008;4.300;2023-02-15T12:22:01;12.30;99.90
19538;DHT22;9914;51.008;4.300;2023-02-15T12:24:43;12.30;99.90
19538;DHT22;9914;51.008;4.300;2023-02-15T12:27:18;12.50;99.90
19538;DHT22;9914;51.008;4.300;2023-02-15T12:32:24;12.90;99.90
19538;DHT22;9914;51.008;4.300;2023-02-15T12:34:51;13.00;99.90
19538;DHT22;9914;51.008;4.300;2023-02-15T12:37:23;13.10;99.90
19538;DHT22;9914;51.008;4.300;2023-02-15T12:39:57;13.20;99.90
19538;DHT22;9914;51.008;4.300;2023-02-15T12:42:24;13.20;99.90
19538;DHT22;9914;51.008;4.300;2023-02-15T12:45:26;13.30;99.90
19538;DHT22;9914;51.008;4.300;2023-02-15T12:50:33;13.30;99.90
19538;DHT22;9914;51.008;4.300;2023-02-15T12:53:13;13.30;99.90
19538;DHT22;9914;51.008;4.300;2023-02-15T12:55:40;13.50;99.90
19538;DHT22;9914;51.008;4.300;2023-02-15T12:58:23;13.60;99.90
19538;DHT22;9914;51.008;4.300;2023-02-15T13:01:16;13.80;99.90
19538;DHT22;9914;51.008;4.300;2023-02-15T13:04:03;14.00;99.90
19538;DHT22;9914;51.008;4.300;2023-02-15T13:06:32;13.90;99.90
19538;DHT22;9914;51.008;4.300;2023-02-15T13:09:15;14.00;99.90
19538;DHT22;9914;51.008;4.300;2023-02-15T13:11:44;14.20;99.90
19538;DHT22;9914;51.008;4.300;2023-02-15T13:14:20;14.20;99.90
19538;DHT22;9914;51.008;4.300;2023-02-15T13:16:49;14.20;99.90
19538;DHT22;9914;51.008;4.300;2023-02-15T13:19:26;14.20;99.90
19538;DHT22;9914;51.008;4.300;2023-02-15T13:21:54;14.20;99.90
19538;DHT22;9914;51.008;4.300;2023-02-15T13:24:27;14.10;99.90
19538;DHT22;9914;51.008;4.300;2023-02-15T13:26:56;14.10;99.90
19538;DHT22;9914;51.008;4.300;2023-02-15T13:29:27;14.20;99.90
19538;DHT22;9914;51.008;4.300;2023-02-15T13:31:54;14.30;99.90
19538;DHT22;9914;51.008;4.300;2023-02-15T13:34:33;14.50;99.90
19538;DHT22;9914;51.008;4.300;2023-02-15T13:40:22;14.70;99.90
19538;DHT22;9914;51.008;4.300;2023-02-15T13:42:56;14.70;99.90
19538;DHT22;9914;51.008;4.300;2023-02-15T13:53:53;14.90;99.90
19538;DHT22;9914;51.008;4.300;2023-02-15T14:01:49;15.00;99.90
19538;DHT22;9914;51.008;4.300;2023-02-15T14:04:34;14.80;99.90
19538;DHT22;9914;51.008;4.300;2023-02-15T14:15:38;14.80;99.90
19538;DHT22;9914;51.008;4.300;2023-02-15T14:18:29;14.50;99.90
19538;DHT22;9914;51.008;4.300;2023-02-15T14:21:23;14.20;99.90
19538;DHT22;9914;51.008;4.300;2023-02-15T14:29:28;14.40;99.90
19538;DHT22;9914;51.008;4.300;2023-02-15T14:31:58;14.40;99.90
19538;DHT22;9914;51.008;4.300;2023-02-15T14:34:34;14.40;99.90
19538;DHT22;9914;51.008;4.300;2023-02-15T14:37:04;14.40;99.90
19538;DHT22;9914;51.008;4.300;2023-02-15T14:39:44;14.50;99.90
19538;DHT22;9914;51.008;4.300;2023-02-15T14:45:40;14.50;99.90
19538;DHT22;9914;51.008;4.300;2023-02-15T14:48:16;14.60;99.90
19538;DHT22;9914;51.008;4.300;2023-02-15T14:50:45;14.60;99.90
19538;DHT22;9914;51.008;4.300;2023-02-15T14:55:46;14.40;99.90
19538;DHT22;9914;51.008;4.300;2023-02-15T14:58:12;14.50;99.90
19538;DHT22;9914;51.008;4.300;2023-02-15T15:00:40;14.50;99.90
19538;DHT22;9914;51.008;4.300;2023-02-15T15:03:20;14.50;99.90
19538;DHT22;9914;51.008;4.300;2023-02-15T15:05:52;14.60;99.90
19538;DHT22;9914;51.008;4.300;2023-02-15T15:08:36;14.60;99.90
19538;DHT22;9914;51.008;4.300;2023-02-15T15:13:56;14.40;99.90
19538;DHT22;9914;51.008;4.300;2023-02-15T15:19:05;14.40;99.90
19538;DHT22;9914;51.008;4.300;2023-02-15T15:33:17;14.30;99.90
19538;DHT22;9914;51.008;4.300;2023-02-15T15:41:13;14.20;99.90
19538;DHT22;9914;51.008;4.300;2023-02-15T15:44:01;14.10;99.90
19538;DHT22;9914;51.008;4.300;2023-02-15T15:49:37;14.00;99.90
19538;DHT22;9914;51.008;4.300;2023-02-15T15:52:12;13.90;99.90
19538;DHT22;9914;51.008;4.300;2023-02-15T15:54:40;13.70;99.90
19538;DHT22;9914;51.008;4.300;2023-02-15T15:57:16;13.60;99.90
19538;DHT22;9914;51.008;4.300;2023-02-15T15:59:46;13.40;99.90
19538;DHT22;9914;51.008;4.300;2023-02-15T16:02:14;13.30;99.90
19538;DHT22;9914;51.008;4.300;2023-02-15T16:04:44;13.20;99.90
19538;DHT22;9914;51.008;4.300;2023-02-15T16:12:25;13.10;99.90
19538;DHT22;9914;51.008;4.300;2023-02-15T16:14:51;13.10;99.90
19538;DHT22;9914;51.008;4.300;2023-02-15T16:17:24;13.00;99.90
19538;DHT22;9914;51.008;4.300;2023-02-15T16:19:50;13.00;99.90
19538;DHT22;9914;51.008;4.300;2023-02-15T16:22:22;13.00;99.90
19538;DHT22;9914;51.008;4.300;2023-02-15T16:27:44;13.00;99.90
19538;DHT22;9914;51.008;4.300;2023-02-15T16:30:29;12.90;99.90
19538;DHT22;9914;51.008;4.300;2023-02-15T16:33:10;12.80;99.90
19538;DHT22;9914;51.008;4.300;2023-02-15T16:35:38;12.60;99.90
19538;DHT22;9914;51.008;4.300;2023-02-15T16:38:05;12.50;99.90
19538;DHT22;9914;51.008;4.300;2023-02-15T16:40:54;12.40;99.90
19538;DHT22;9914;51.008;4.300;2023-02-15T16:43:25;12.50;99.90
19538;DHT22;9914;51.008;4.300;2023-02-15T16:45:58;12.40;99.90
19538;DHT22;9914;51.008;4.300;2023-02-15T16:48:28;12.30;99.90
19538;DHT22;9914;51.008;4.300;2023-02-15T16:50:55;12.10;99.90
19538;DHT22;9914;51.008;4.300;2023-02-15T16:53:26;12.00;99.90
19538;DHT22;9914;51.008;4.300;2023-02-15T16:55:58;11.80;99.90
19538;DHT22;9914;51.008;4.300;2023-02-15T16:58:43;11.80;99.90
19538;DHT22;9914;51.008;4.300;2023-02-15T17:01:14;11.70;99.90
19538;DHT22;9914;51.008;4.300;2023-02-15T17:03:41;11.70;99.90
19538;DHT22;9914;51.008;4.300;2023-02-15T17:06:22;11.70;99.90
19538;DHT22;9914;51.008;4.300;2023-02-15T17:08:48;11.60;99.90
19538;DHT22;9914;51.008;4.300;2023-02-15T17:16:36;11.30;99.90
19538;DHT22;9914;51.008;4.300;2023-02-15T17:19:17;11.30;99.90
19538;DHT22;9914;51.008;4.300;2023-02-15T17:22:20;11.20;99.90
19538;DHT22;9914;51.008;4.300;2023-02-15T17:24:48;11.00;99.90
19538;DHT22;9914;51.008;4.300;2023-02-15T17:27:22;11.10;99.90
19538;DHT22;9914;51.008;4.300;2023-02-15T17:29:51;11.00;99.90
19538;DHT22;9914;51.008;4.300;2023-02-15T17:32:29;11.00;99.90
19538;DHT22;9914;51.008;4.300;2023-02-15T17:37:51;10.90;99.90
19538;DHT22;9914;51.008;4.300;2023-02-15T17:40:27;10.90;99.90
19538;DHT22;9914;51.008;4.300;2023-02-15T17:42:54;10.90;99.90
19538;DHT22;9914;51.008;4.300;2023-02-15T17:45:21;10.90;99.90
19538;DHT22;9914;51.008;4.300;2023-02-15T17:47:48;10.90;99.90
19538;DHT22;9914;51.008;4.300;2023-02-15T17:50:26;10.80;99.90
19538;DHT22;9914;51.008;4.300;2023-02-15T17:52:53;10.90;99.90
19538;DHT22;9914;51.008;4.300;2023-02-15T17:55:21;10.80;99.90
19538;DHT22;9914;51.008;4.300;2023-02-15T17:58:00;10.70;99.90
19538;DHT22;9914;51.008;4.300;2023-02-15T18:00:27;10.80;99.90
19538;DHT22;9914;51.008;4.300;2023-02-15T18:03:11;10.80;99.90
19538;DHT22;9914;51.008;4.300;2023-02-15T18:05:57;10.80;99.90
19538;DHT22;9914;51.008;4.300;2023-02-15T18:08:41;10.80;99.90
19538;DHT22;9914;51.008;4.300;2023-02-15T18:11:25;10.80;99.90
19538;DHT22;9914;51.008;4.300;2023-02-15T18:14:05;10.90;99.90
19538;DHT22;9914;51.008;4.300;2023-02-15T18:16:37;10.80;99.90
19538;DHT22;9914;51.008;4.300;2023-02-15T18:19:06;10.80;99.90
19538;DHT22;9914;51.008;4.300;2023-02-15T18:21:34;10.70;99.90
19538;DHT22;9914;51.008;4.300;2023-02-15T18:24:00;10.70;99.90
19538;DHT22;9914;51.008;4.300;2023-02-15T18:26:26;10.70;99.90
19538;DHT22;9914;51.008;4.300;2023-02-15T18:28:52;10.60;99.90
19538;DHT22;9914;51.008;4.300;2023-02-15T18:31:18;10.60;99.90
19538;DHT22;9914;51.008;4.300;2023-02-15T18:33:52;10.60;99.90
19538;DHT22;9914;51.008;4.300;2023-02-15T18:36:30;10.60;99.90
19538;DHT22;9914;51.008;4.300;2023-02-15T18:39:00;10.60;99.90
19538;DHT22;9914;51.008;4.300;2023-02-15T18:41:28;10.50;99.90
19538;DHT22;9914;51.008;4.300;2023-02-15T18:43:53;10.50;99.90
19538;DHT22;9914;51.008;4.300;2023-02-15T18:46:20;10.50;99.90
19538;DHT22;9914;51.008;4.300;2023-02-15T18:48:46;10.40;99.90
19538;DHT22;9914;51.008;4.300;2023-02-15T18:51:17;10.30;99.90
19538;DHT22;9914;51.008;4.300;2023-02-15T18:53:44;10.40;99.90
19538;DHT22;9914;51.008;4.300;2023-02-15T18:56:19;10.30;99.90
19538;DHT22;9914;51.008;4.300;2023-02-15T18:58:45;10.40;99.90
19538;DHT22;9914;51.008;4.300;2023-02-15T19:01:17;10.40;99.90
19538;DHT22;9914;51.008;4.300;2023-02-15T19:03:46;10.20;99.90
19538;DHT22;9914;51.008;4.300;2023-02-15T19:06:14;10.20;99.90
19538;DHT22;9914;51.008;4.300;2023-02-15T19:08:43;10.20;99.90
19538;DHT22;9914;51.008;4.300;2023-02-15T19:11:12;10.10;99.90
19538;DHT22;9914;51.008;4.300;2023-02-15T19:13:39;10.00;99.90
19538;DHT22;9914;51.008;4.300;2023-02-15T19:16:05;10.00;99.90
19538;DHT22;9914;51.008;4.300;2023-02-15T19:18:30;9.90;99.90
19538;DHT22;9914;51.008;4.300;2023-02-15T19:20:56;9.80;99.90
19538;DHT22;9914;51.008;4.300;2023-02-15T19:23:22;9.70;99.90